Time;durP1;ratioP1;P1;durP2;ratioP2;P2;SDS_P1;SDS_P2;PMS_P1;PMS_P2;Temp;Humidity;BMP_temperature;BMP_pressure;BME280_temperature;BME280_humidity;BME280_pressure;Samples;Min_cycle;Max_cycle;Signal;HPM_P1;HPM_P2
2023/09/19 00:00:38;;;;;;;9.50;2.50;;;13.30;99.90;;;;;;5037502;28;20429;-76
2023/09/19 00:03:06;;;;;;;10.18;2.28;;;13.30;99.90;;;;;;5035798;28;20433;-75
2023/09/19 00:05:35;;;;;;;8.35;2.10;;;13.10;99.90;;;;;;5031048;28;20838;-75
2023/09/19 00:08:04;;;;;;;11.57;2.30;;;13.10;99.90;;;;;;5068681;28;20413;-75
2023/09/19 00:10:31;;;;;;;7.78;2.45;;;;;;;;;;5036225;28;20417;-75
2023/09/19 00:13:04;;;;;;;7.20;2.50;;;13.30;99.90;;;;;;5035081;28;20781;-75
2023/09/19 00:15:33;;;;;;;9.38;2.72;;;12.90;99.90;;;;;;5035802;28;20780;-75
2023/09/19 00:17:59;;;;;;;10.68;2.35;;;13.00;99.90;;;;;;5035958;28;20409;-75
2023/09/19 00:20:24;;;;;;;10.40;2.57;;;12.80;99.90;;;;;;5036000;28;20733;-75
2023/09/19 00:22:53;;;;;;;8.32;2.15;;;12.90;99.90;;;;;;5035702;28;20763;-75
2023/09/19 00:25:20;;;;;;;12.85;2.80;;;13.00;99.90;;;;;;5035140;28;20421;-76
2023/09/19 00:27:49;;;;;;;8.88;3.00;;;12.90;99.90;;;;;;5035777;28;20734;-76
2023/09/19 00:30:19;;;;;;;11.63;2.70;;;12.70;99.90;;;;;;5034264;28;20421;-76
2023/09/19 00:32:47;;;;;;;8.13;2.37;;;;;;;;;;5057332;28;20592;-75
2023/09/19 00:35:16;;;;;;;11.20;2.67;;;12.70;99.90;;;;;;5034212;28;20526;-75
2023/09/19 00:37:42;;;;;;;10.93;2.83;;;13.00;99.90;;;;;;5035085;28;20409;-75
2023/09/19 00:40:12;;;;;;;12.48;2.83;;;12.80;99.90;;;;;;5034361;28;20897;-75
2023/09/19 00:42:42;;;;;;;12.18;3.03;;;13.20;99.90;;;;;;5018262;28;20508;-75
2023/09/19 00:45:13;;;;;;;11.75;2.80;;;13.10;99.90;;;;;;5034016;28;20501;-75
2023/09/19 00:47:51;;;;;;;12.98;2.92;;;13.30;99.90;;;;;;5026678;28;20438;-75
2023/09/19 00:50:19;;;;;;;10.05;2.85;;;13.10;99.90;;;;;;5046060;28;20753;-76
2023/09/19 00:52:48;;;;;;;9.90;3.00;;;13.30;99.90;;;;;;5051433;28;20804;-76
2023/09/19 00:55:15;;;;;;;12.07;2.60;;;13.40;99.90;;;;;;5031125;28;20567;-76
2023/09/19 00:57:41;;;;;;;12.25;2.80;;;13.20;99.90;;;;;;5015455;28;20501;-76
2023/09/19 01:00:15;;;;;;;11.63;2.80;;;13.10;99.90;;;;;;5018432;28;20496;-76
2023/09/19 01:02:45;;;;;;;11.02;2.50;;;13.10;99.90;;;;;;5019277;28;20862;-76
2023/09/19 01:05:12;;;;;;;12.20;2.92;;;13.20;99.90;;;;;;5033648;28;20425;-74
2023/09/19 01:07:41;;;;;;;9.57;2.50;;;13.10;99.90;;;;;;5034035;28;20462;-74
2023/09/19 01:10:10;;;;;;;10.77;2.60;;;13.10;99.90;;;;;;5038876;28;20415;-74
2023/09/19 01:12:49;;;;;;;12.35;2.60;;;13.20;99.90;;;;;;5042228;28;20762;-74
2023/09/19 01:15:41;;;;;;;14.15;3.03;;;13.10;99.90;;;;;;5060032;28;20429;-74
2023/09/19 01:18:06;;;;;;;11.10;2.47;;;13.10;99.90;;;;;;5027109;28;20994;-74
2023/09/19 01:20:44;;;;;;;10.10;3.13;;;13.00;99.90;;;;;;5034080;28;20619;-74
2023/09/19 01:23:32;;;;;;;9.97;2.67;;;13.20;99.90;;;;;;5048478;28;20433;-74
2023/09/19 01:26:16;;;;;;;14.07;2.92;;;13.10;99.90;;;;;;5032600;28;20444;-74
2023/09/19 01:29:13;;;;;;;11.52;3.20;;;13.20;99.90;;;;;;5050526;28;20784;-74
2023/09/19 01:31:42;;;;;;;16.25;2.80;;;13.10;99.90;;;;;;5020404;28;20429;-74
2023/09/19 01:34:08;;;;;;;11.35;2.50;;;13.10;99.90;;;;;;5017711;28;20851;-74
2023/09/19 01:36:38;;;;;;;11.45;2.97;;;12.90;99.90;;;;;;5031867;28;20425;-74
2023/09/19 01:39:10;;;;;;;11.90;3.00;;;12.60;99.90;;;;;;5066889;28;20488;-74
2023/09/19 01:41:57;;;;;;;10.82;3.08;;;13.00;99.90;;;;;;5044990;28;20824;-74
2023/09/19 01:44:54;;;;;;;12.32;3.20;;;13.00;99.90;;;;;;5025616;28;20437;-74
2023/09/19 01:47:26;;;;;;;11.05;2.72;;;12.80;99.90;;;;;;5036413;28;20919;-74
2023/09/19 01:50:21;;;;;;;11.52;2.78;;;;;;;;;;5040566;28;20435;-74
2023/09/19 01:52:54;;;;;;;9.38;2.80;;;12.60;99.90;;;;;;5028419;28;20511;-74
2023/09/19 01:55:22;;;;;;;10.10;2.88;;;12.80;99.90;;;;;;5031986;28;20417;-75
2023/09/19 01:58:07;;;;;;;10.30;2.38;;;12.90;99.90;;;;;;5065797;28;20421;-74
2023/09/19 02:00:37;;;;;;;10.15;2.67;;;12.90;99.90;;;;;;5063424;28;20476;-74
2023/09/19 02:03:03;;;;;;;9.55;2.60;;;12.80;99.90;;;;;;5032710;28;20401;-74
2023/09/19 02:05:30;;;;;;;10.95;2.92;;;12.80;99.90;;;;;;5050364;28;20643;-74
2023/09/19 02:07:56;;;;;;;11.00;2.67;;;12.90;99.90;;;;;;5032029;28;20462;-74
2023/09/19 02:10:23;;;;;;;8.32;2.20;;;12.80;99.90;;;;;;5032788;28;20431;-74
2023/09/19 02:12:50;;;;;;;9.27;2.70;;;12.70;99.90;;;;;;5032063;28;20425;-74
2023/09/19 02:15:16;;;;;;;9.68;2.38;;;12.70;99.90;;;;;;5033181;28;20445;-74
2023/09/19 02:17:45;;;;;;;9.60;2.58;;;12.50;99.90;;;;;;5040468;28;20817;-74
2023/09/19 02:20:14;;;;;;;10.80;2.80;;;12.70;99.90;;;;;;5048357;28;20498;-75
2023/09/19 02:22:41;;;;;;;8.48;2.40;;;12.70;99.90;;;;;;5033193;28;20548;-74
2023/09/19 02:25:08;;;;;;;10.25;2.78;;;12.50;99.90;;;;;;5046913;28;20427;-74
2023/09/19 02:27:34;;;;;;;11.93;3.13;;;;;;;;;;5032261;28;20518;-74
2023/09/19 02:30:03;;;;;;;12.13;2.30;;;12.30;99.90;;;;;;5035630;28;20846;-74
2023/09/19 02:32:31;;;;;;;6.95;2.45;;;12.50;99.90;;;;;;5018638;28;20430;-74
2023/09/19 02:34:58;;;;;;;9.95;2.85;;;12.40;99.90;;;;;;5032556;28;20405;-74
2023/09/19 02:37:24;;;;;;;9.85;2.45;;;;;;;;;;5062881;28;20428;-74
2023/09/19 02:39:50;;;;;;;9.43;2.60;;;12.30;99.90;;;;;;5041976;28;20419;-74
2023/09/19 02:42:16;;;;;;;9.40;2.70;;;12.60;99.90;;;;;;5041453;28;20409;-75
2023/09/19 02:44:46;;;;;;;15.47;2.50;;;12.20;99.90;;;;;;5025547;28;20427;-74
2023/09/19 02:47:12;;;;;;;8.65;2.33;;;12.40;99.90;;;;;;5034445;28;20428;-74
2023/09/19 02:49:38;;;;;;;12.00;2.75;;;12.50;99.90;;;;;;5033924;28;20428;-74
2023/09/19 02:52:04;;;;;;;9.93;2.33;;;12.40;99.90;;;;;;5019906;28;20413;-74
2023/09/19 02:54:30;;;;;;;9.10;2.47;;;;;;;;;;5032573;28;20464;-74
2023/09/19 02:56:56;;;;;;;10.05;2.35;;;12.50;99.90;;;;;;5071893;28;20423;-74
2023/09/19 02:59:22;;;;;;;8.45;2.20;;;;;;;;;;5046478;28;20511;-74
2023/09/19 03:01:48;;;;;;;14.95;3.63;;;12.50;99.90;;;;;;5032910;28;20408;-74
2023/09/19 03:04:19;;;;;;;9.83;2.70;;;12.60;99.90;;;;;;5035796;28;20949;-74
2023/09/19 03:06:45;;;;;;;8.00;2.22;;;12.60;99.90;;;;;;5039896;28;20423;-74
2023/09/19 03:09:12;;;;;;;8.80;2.53;;;;;;;;;;5027274;28;20420;-74
2023/09/19 03:11:40;;;;;;;9.15;2.47;;;12.40;99.90;;;;;;5036727;28;20463;-74
2023/09/19 03:14:06;;;;;;;10.30;2.47;;;;;;;;;;5053789;28;20441;-74
2023/09/19 03:16:33;;;;;;;8.15;2.17;;;;;;;;;;5071608;28;20419;-74
2023/09/19 03:18:59;;;;;;;11.10;2.70;;;;;;;;;;5037650;28;20417;-74
2023/09/19 03:21:25;;;;;;;11.25;2.60;;;12.40;99.90;;;;;;5035467;28;20414;-74
2023/09/19 03:23:51;;;;;;;11.20;2.70;;;12.50;99.90;;;;;;5036805;28;20874;-74
2023/09/19 03:26:17;;;;;;;10.77;2.45;;;12.40;99.90;;;;;;5034928;28;20417;-74
2023/09/19 03:28:43;;;;;;;9.70;2.95;;;12.60;99.90;;;;;;5052825;28;20934;-74
2023/09/19 03:31:10;;;;;;;10.45;2.65;;;;;;;;;;5036926;28;20417;-75
2023/09/19 03:33:37;;;;;;;11.98;3.70;;;12.20;99.90;;;;;;5038206;28;20471;-74
2023/09/19 03:36:07;;;;;;;8.68;2.60;;;12.30;99.90;;;;;;5052373;28;20417;-74
2023/09/19 03:38:34;;;;;;;9.23;2.60;;;;;;;;;;5033562;28;20456;-74
2023/09/19 03:41:00;;;;;;;8.80;2.47;;;;;;;;;;5034959;28;20429;-74
2023/09/19 03:43:26;;;;;;;11.88;2.90;;;12.50;99.90;;;;;;5035847;28;20413;-74
2023/09/19 03:45:55;;;;;;;10.18;2.65;;;12.60;99.90;;;;;;5018483;28;20772;-74
2023/09/19 03:48:21;;;;;;;10.80;3.00;;;;;;;;;;5018374;28;20430;-74
2023/09/19 03:50:48;;;;;;;10.98;2.67;;;;;;;;;;5036119;28;20409;-74
2023/09/19 03:53:14;;;;;;;14.57;2.70;;;12.70;99.90;;;;;;5038797;28;20417;-74
2023/09/19 03:55:40;;;;;;;11.65;2.85;;;;;;;;;;5051204;28;20427;-74
2023/09/19 03:58:06;;;;;;;9.65;2.58;;;;;;;;;;5035975;28;20421;-74
2023/09/19 04:00:32;;;;;;;7.00;2.45;;;12.70;99.90;;;;;;5034695;28;20967;-74
2023/09/19 04:02:58;;;;;;;9.70;2.47;;;13.00;99.90;;;;;;5035935;28;20505;-74
2023/09/19 04:05:24;;;;;;;13.97;2.93;;;12.80;99.90;;;;;;5034034;28;20459;-74
2023/09/19 04:07:50;;;;;;;10.98;2.85;;;;;;;;;;5017041;28;20425;-74
2023/09/19 04:10:17;;;;;;;11.60;2.42;;;13.10;99.90;;;;;;5050752;28;20958;-74
2023/09/19 04:12:53;;;;;;;8.15;2.25;;;12.90;99.90;;;;;;5051333;28;20835;-74
2023/09/19 04:15:19;;;;;;;8.85;2.53;;;12.90;99.90;;;;;;5035548;28;20420;-74
2023/09/19 04:17:45;;;;;;;7.68;2.40;;;13.00;99.90;;;;;;5049741;28;20421;-74
2023/09/19 04:20:12;;;;;;;11.18;2.55;;;13.00;99.90;;;;;;5008424;28;20968;-74
2023/09/19 04:22:39;;;;;;;8.40;2.60;;;12.80;99.90;;;;;;5017342;28;20789;-74
2023/09/19 04:25:06;;;;;;;14.32;3.25;;;12.90;99.90;;;;;;5034308;28;20440;-77
2023/09/19 04:27:32;;;;;;;10.88;2.88;;;12.90;99.90;;;;;;5037366;28;20452;-77
2023/09/19 04:29:59;;;;;;;9.95;2.25;;;12.90;99.90;;;;;;5068725;28;20409;-76
2023/09/19 04:32:28;;;;;;;11.70;2.63;;;12.90;99.90;;;;;;5034333;28;20840;-77
2023/09/19 04:34:54;;;;;;;12.32;2.58;;;12.80;99.90;;;;;;5034991;28;20841;-77
2023/09/19 04:37:21;;;;;;;10.02;2.70;;;13.10;99.90;;;;;;5036061;28;20429;-78
2023/09/19 04:39:47;;;;;;;10.50;2.60;;;13.00;99.90;;;;;;5051845;28;20432;-77
2023/09/19 04:42:14;;;;;;;7.60;2.30;;;12.80;99.90;;;;;;5049492;28;20868;-77
2023/09/19 04:44:40;;;;;;;9.68;2.58;;;;;;;;;;5051463;28;20429;-77
2023/09/19 04:47:06;;;;;;;12.35;2.70;;;;;;;;;;5051554;28;20482;-78
2023/09/19 04:49:32;;;;;;;11.57;2.78;;;13.10;99.90;;;;;;5044332;28;20407;-77
2023/09/19 04:51:58;;;;;;;11.55;2.80;;;;;;;;;;5080482;28;20646;-77
2023/09/19 04:54:23;;;;;;;8.70;3.10;;;13.00;99.90;;;;;;5068508;28;20405;-77
2023/09/19 04:56:49;;;;;;;8.93;2.47;;;;;;;;;;5048901;28;20431;-77
2023/09/19 04:59:15;;;;;;;13.18;2.97;;;13.10;99.90;;;;;;5047536;28;20490;-77
2023/09/19 05:01:41;;;;;;;12.70;2.70;;;12.90;99.90;;;;;;5020597;28;20918;-77
2023/09/19 05:04:07;;;;;;;9.32;2.30;;;13.00;99.90;;;;;;5033755;28;20408;-77
2023/09/19 05:06:35;;;;;;;9.07;2.50;;;12.80;99.90;;;;;;5051411;28;20428;-76
2023/09/19 05:09:01;;;;;;;8.63;2.80;;;;;;;;;;5017103;28;20462;-77
2023/09/19 05:11:30;;;;;;;11.83;2.90;;;;;;;;;;5033157;28;20475;-78
2023/09/19 05:13:55;;;;;;;10.02;2.53;;;13.10;99.90;;;;;;5043026;28;20421;-77
2023/09/19 05:16:21;;;;;;;11.63;2.70;;;13.20;99.90;;;;;;5030762;28;20866;-78
2023/09/19 05:18:49;;;;;;;8.40;2.47;;;;;;;;;;5061243;28;20418;-77
2023/09/19 05:21:15;;;;;;;8.50;2.70;;;13.20;99.90;;;;;;5003375;28;20427;-77
2023/09/19 05:23:41;;;;;;;11.57;2.83;;;13.10;99.90;;;;;;5029803;28;20409;-78
2023/09/19 05:26:06;;;;;;;10.57;2.38;;;13.30;99.90;;;;;;5034179;28;20429;-77
2023/09/19 05:28:34;;;;;;;13.68;2.90;;;13.10;99.90;;;;;;5018119;28;20402;-77
2023/09/19 05:31:02;;;;;;;9.63;2.70;;;13.20;99.90;;;;;;5043443;28;20442;-78
2023/09/19 05:33:31;;;;;;;12.00;2.78;;;13.00;99.90;;;;;;5023372;28;20514;-78
2023/09/19 05:35:57;;;;;;;10.30;2.83;;;13.20;99.90;;;;;;5033717;28;20436;-78
2023/09/19 05:38:24;;;;;;;15.38;3.20;;;13.20;99.90;;;;;;5044837;28;20919;-77
2023/09/19 05:40:50;;;;;;;13.15;2.95;;;13.20;99.90;;;;;;5035518;28;20430;-78
2023/09/19 05:43:15;;;;;;;9.10;3.15;;;13.00;99.90;;;;;;5045017;28;20803;-77
2023/09/19 05:45:41;;;;;;;13.60;3.40;;;13.10;99.90;;;;;;5033507;28;20432;-78
2023/09/19 05:48:08;;;;;;;15.88;3.67;;;;;;;;;;5023802;28;20430;-78
2023/09/19 05:50:34;;;;;;;11.13;3.67;;;13.10;99.90;;;;;;5045512;28;20815;-78
2023/09/19 05:53:00;;;;;;;12.65;3.83;;;;;;;;;;5035061;28;20455;-78
2023/09/19 05:55:25;;;;;;;12.15;3.70;;;13.10;99.90;;;;;;5044182;28;20475;-78
2023/09/19 05:57:52;;;;;;;13.55;4.13;;;13.30;99.90;;;;;;5032128;28;20422;-77
2023/09/19 06:00:23;;;;;;;10.98;3.58;;;13.30;99.90;;;;;;5033334;28;20452;-77
2023/09/19 06:02:52;;;;;;;14.32;3.53;;;13.10;99.90;;;;;;5027935;28;20984;-76
2023/09/19 06:05:19;;;;;;;12.88;3.50;;;;;;;;;;5041892;28;20440;-78
2023/09/19 06:07:45;;;;;;;15.27;3.78;;;13.40;99.90;;;;;;5061801;28;20768;-78
2023/09/19 06:10:11;;;;;;;8.90;3.30;;;13.40;99.90;;;;;;5028718;28;20426;-80
2023/09/19 06:12:44;;;;;;;16.00;4.03;;;13.20;99.90;;;;;;5030739;28;20401;-78
2023/09/19 06:15:15;;;;;;;15.10;3.22;;;13.40;99.90;;;;;;5049314;28;20479;-78
2023/09/19 06:18:13;;;;;;;10.90;3.05;;;13.60;99.90;;;;;;5047820;28;20432;-78
2023/09/19 06:20:44;;;;;;;11.50;2.90;;;13.40;99.90;;;;;;5048381;28;20539;-78
2023/09/19 06:23:09;;;;;;;10.80;3.37;;;13.80;99.90;;;;;;5050813;28;20424;-77
2023/09/19 06:25:35;;;;;;;12.73;3.00;;;13.80;99.90;;;;;;5047475;28;20417;-75
2023/09/19 06:28:04;;;;;;;11.55;2.83;;;13.70;99.90;;;;;;5048516;28;21013;-75
2023/09/19 06:30:30;;;;;;;14.35;3.53;;;;;;;;;;5049616;28;20513;-75
2023/09/19 06:32:57;;;;;;;11.75;3.28;;;13.80;99.90;;;;;;5049882;28;20419;-75
2023/09/19 06:35:23;;;;;;;12.68;3.22;;;13.80;99.90;;;;;;5037474;28;20456;-75
2023/09/19 06:37:51;;;;;;;13.98;2.72;;;;;;;;;;5034436;28;20417;-74
2023/09/19 06:40:17;;;;;;;12.13;3.40;;;13.80;99.90;;;;;;5050596;28;20429;-75
2023/09/19 06:42:49;;;;;;;10.88;2.67;;;13.90;99.90;;;;;;5035658;28;20750;-76
2023/09/19 06:45:18;;;;;;;12.75;2.65;;;;;;;;;;5039610;28;20425;-76
2023/09/19 06:47:51;;;;;;;10.82;3.30;;;14.20;99.90;;;;;;5050487;28;20508;-75
2023/09/19 06:50:24;;;;;;;8.23;2.75;;;14.20;99.90;;;;;;5038905;28;20406;-75
2023/09/19 06:52:52;;;;;;;10.95;2.95;;;14.50;99.90;;;;;;5039210;28;21731;-76
2023/09/19 06:55:19;;;;;;;12.88;3.22;;;14.50;99.90;;;;;;5052295;28;20502;-76
2023/09/19 06:57:48;;;;;;;10.57;3.13;;;14.40;99.90;;;;;;5053175;28;20436;-76
2023/09/19 07:00:18;;;;;;;11.77;3.20;;;14.50;99.90;;;;;;5036153;28;20456;-75
2023/09/19 07:02:58;;;;;;;11.67;2.83;;;;;;;;;;5053343;28;20407;-75
2023/09/19 07:05:24;;;;;;;14.50;3.40;;;14.40;99.90;;;;;;5049350;28;20440;-76
2023/09/19 07:07:50;;;;;;;16.90;3.22;;;14.50;99.90;;;;;;5050910;28;20425;-76
2023/09/19 07:10:16;;;;;;;13.90;3.50;;;14.70;99.90;;;;;;5052010;28;20401;-77
2023/09/19 07:12:42;;;;;;;8.85;2.58;;;14.50;99.90;;;;;;5036740;28;20393;-76
2023/09/19 07:15:08;;;;;;;13.77;3.00;;;14.60;99.90;;;;;;5047888;28;20526;-76
2023/09/19 07:17:34;;;;;;;13.40;2.70;;;14.70;99.90;;;;;;5050948;28;20417;-75
2023/09/19 07:19:59;;;;;;;12.33;2.57;;;14.70;99.90;;;;;;5051222;28;20480;-75
2023/09/19 07:22:28;;;;;;;11.73;3.03;;;14.90;99.90;;;;;;5035542;28;20412;-75
2023/09/19 07:24:54;;;;;;;10.93;3.10;;;14.60;99.90;;;;;;5052266;28;20425;-76
2023/09/19 07:27:20;;;;;;;11.00;3.20;;;14.80;99.90;;;;;;5035302;28;20405;-76
2023/09/19 07:29:46;;;;;;;11.60;3.22;;;14.60;99.90;;;;;;5031556;28;20430;-76
2023/09/19 07:32:11;;;;;;;10.60;3.03;;;14.50;99.90;;;;;;4995999;28;20817;-75
2023/09/19 07:34:40;;;;;;;14.20;2.88;;;14.60;99.90;;;;;;5002899;28;20496;-77
2023/09/19 07:37:06;;;;;;;14.10;3.00;;;14.80;99.90;;;;;;5069936;28;20807;-76
2023/09/19 07:39:32;;;;;;;10.23;2.80;;;14.70;99.90;;;;;;5033117;28;20433;-77
2023/09/19 07:41:58;;;;;;;10.20;2.53;;;14.80;99.90;;;;;;5018012;28;20425;-77
2023/09/19 07:44:25;;;;;;;12.50;3.07;;;15.00;99.90;;;;;;5033965;28;20974;-77
2023/09/19 07:46:52;;;;;;;8.95;2.60;;;14.80;99.90;;;;;;5010880;28;20427;-77
2023/09/19 07:49:18;;;;;;;12.27;3.13;;;15.00;99.90;;;;;;5034461;28;20414;-77
2023/09/19 07:51:47;;;;;;;13.75;2.97;;;15.20;99.90;;;;;;5032223;28;20421;-76
2023/09/19 07:54:14;;;;;;;10.27;2.90;;;15.10;99.90;;;;;;5033277;28;20514;-77
2023/09/19 07:56:40;;;;;;;10.50;2.55;;;15.00;99.90;;;;;;5015517;28;20422;-77
2023/09/19 07:59:05;;;;;;;12.93;2.90;;;15.10;99.90;;;;;;5018174;28;20491;-77
2023/09/19 08:01:32;;;;;;;9.67;2.30;;;15.10;99.90;;;;;;5035426;28;20413;-77
2023/09/19 08:03:58;;;;;;;10.70;2.65;;;15.00;99.90;;;;;;5051928;28;20414;-77
2023/09/19 08:06:24;;;;;;;9.13;2.57;;;15.20;99.90;;;;;;5066448;28;20429;-76
2023/09/19 08:08:53;;;;;;;10.98;2.97;;;15.20;99.90;;;;;;5034043;28;20405;-74
2023/09/19 08:11:21;;;;;;;12.88;3.42;;;15.30;99.90;;;;;;5034392;28;20777;-74
2023/09/19 08:13:48;;;;;;;11.90;2.85;;;15.40;99.90;;;;;;5016114;28;20421;-75
2023/09/19 08:16:15;;;;;;;10.75;2.97;;;15.30;99.90;;;;;;5027213;28;20429;-75
2023/09/19 08:18:41;;;;;;;9.77;2.57;;;15.60;99.90;;;;;;5050515;28;20418;-76
2023/09/19 08:21:10;;;;;;;11.80;3.10;;;15.50;99.90;;;;;;5014886;28;20940;-75
2023/09/19 08:23:38;;;;;;;12.68;3.03;;;15.70;99.90;;;;;;5033382;28;20923;-75
2023/09/19 08:26:07;;;;;;;8.23;2.53;;;15.90;99.90;;;;;;5014974;28;20820;-75
2023/09/19 08:28:34;;;;;;;12.02;3.10;;;15.80;99.90;;;;;;5030435;28;20891;-75
2023/09/19 08:31:10;;;;;;;9.93;3.03;;;15.80;99.90;;;;;;5030182;28;20425;-75
2023/09/19 08:33:37;;;;;;;15.57;3.20;;;15.80;99.90;;;;;;4998207;28;20410;-75
2023/09/19 08:36:04;;;;;;;10.65;2.80;;;15.80;99.90;;;;;;5035158;28;20405;-75
2023/09/19 08:38:32;;;;;;;10.68;2.90;;;16.00;99.90;;;;;;5049237;28;20483;-74
2023/09/19 08:41:01;;;;;;;9.43;2.70;;;16.30;99.90;;;;;;5064803;28;20738;-75
2023/09/19 08:43:27;;;;;;;11.15;3.42;;;16.30;99.90;;;;;;5016838;28;20420;-75
2023/09/19 08:46:03;;;;;;;10.10;2.80;;;16.20;99.90;;;;;;5048212;28;20425;-74
2023/09/19 08:48:31;;;;;;;11.90;3.70;;;16.50;99.90;;;;;;5032650;28;20569;-74
2023/09/19 08:51:02;;;;;;;10.52;3.25;;;16.40;99.90;;;;;;5027011;28;20523;-75
2023/09/19 08:53:34;;;;;;;8.85;3.20;;;16.40;99.90;;;;;;5033625;28;20432;-75
2023/09/19 08:56:01;;;;;;;12.43;3.10;;;16.30;99.90;;;;;;5031909;28;20702;-74
2023/09/19 08:58:40;;;;;;;12.10;3.60;;;16.30;99.90;;;;;;5031247;28;20548;-75
2023/09/19 09:01:08;;;;;;;12.93;3.17;;;16.20;99.90;;;;;;5028335;28;20434;-74
2023/09/19 09:03:35;;;;;;;13.15;3.80;;;16.20;99.90;;;;;;5047505;28;20417;-75
2023/09/19 09:06:02;;;;;;;18.77;4.20;;;16.20;99.90;;;;;;5029120;28;20999;-74
2023/09/19 09:08:31;;;;;;;14.00;3.92;;;16.20;99.90;;;;;;5031854;28;20409;-75
2023/09/19 09:10:58;;;;;;;15.93;4.38;;;16.30;99.90;;;;;;5017031;28;20405;-75
2023/09/19 09:13:26;;;;;;;12.15;3.88;;;16.30;99.90;;;;;;5015170;28;20427;-75
2023/09/19 09:15:54;;;;;;;15.48;4.03;;;16.40;99.90;;;;;;5014260;28;20501;-75
2023/09/19 09:18:20;;;;;;;13.00;3.85;;;16.30;99.90;;;;;;5067534;28;20438;-75
2023/09/19 09:20:51;;;;;;;13.70;3.93;;;16.40;99.90;;;;;;5105753;27;1975570;-74
2023/09/19 09:23:17;;;;;;;13.18;3.78;;;16.80;99.90;;;;;;5149472;27;20414;-74
2023/09/19 09:25:54;;;;;;;18.63;4.07;;;16.40;99.90;;;;;;5135342;27;20767;-74
2023/09/19 09:28:22;;;;;;;13.88;3.90;;;16.60;99.90;;;;;;5146297;27;20913;-74
2023/09/19 09:30:48;;;;;;;14.20;3.70;;;16.30;99.90;;;;;;5150211;27;20483;-74
2023/09/19 09:33:16;;;;;;;11.80;3.90;;;16.50;99.90;;;;;;5132243;27;20464;-74
2023/09/19 09:36:08;;;;;;;11.90;3.75;;;16.60;99.90;;;;;;5132566;27;20403;-75
2023/09/19 09:38:46;;;;;;;11.63;3.40;;;17.10;99.90;;;;;;5141704;27;20401;-74
2023/09/19 09:41:15;;;;;;;15.75;3.78;;;16.90;99.90;;;;;;5148648;27;20487;-74
2023/09/19 09:43:48;;;;;;;19.88;3.90;;;16.80;99.90;;;;;;5125700;27;20528;-74
2023/09/19 09:49:19;;;;;;;14.68;3.55;;;17.20;99.90;;;;;;5100624;27;20416;-74
2023/09/19 09:51:57;;;;;;;11.80;3.40;;;17.20;99.90;;;;;;5142551;27;20939;-74
2023/09/19 09:54:24;;;;;;;10.23;2.88;;;17.50;99.90;;;;;;5126907;27;20392;-74
2023/09/19 09:57:01;;;;;;;10.98;3.15;;;17.50;99.90;;;;;;5140674;27;20423;-74
2023/09/19 09:59:50;;;;;;;14.75;3.42;;;18.00;99.90;;;;;;5137697;27;20410;-76
2023/09/19 10:02:23;;;;;;;13.50;3.60;;;17.70;99.90;;;;;;5119144;27;20396;-75
2023/09/19 10:07:41;;;;;;;10.63;3.15;;;17.90;99.90;;;;;;5132712;27;20905;-75
2023/09/19 10:10:15;;;;;;;12.40;3.15;;;17.90;99.90;;;;;;5106278;27;20421;-75
2023/09/19 10:12:45;;;;;;;9.95;3.42;;;17.80;99.90;;;;;;5106239;27;20489;-75
2023/09/19 10:15:15;;;;;;;13.35;3.33;;;17.90;99.90;;;;;;5117953;27;20403;-75
2023/09/19 10:17:45;;;;;;;11.82;3.25;;;17.90;99.90;;;;;;5100064;27;20408;-75
2023/09/19 10:23:00;;;;;;;12.60;3.10;;;18.00;99.90;;;;;;5102319;28;20405;-75
2023/09/19 10:25:33;;;;;;;13.35;3.28;;;18.00;99.90;;;;;;5105738;28;20401;-75
2023/09/19 10:28:03;;;;;;;12.50;3.22;;;18.20;99.90;;;;;;5104554;28;20919;-75
2023/09/19 10:30:31;;;;;;;13.13;3.90;;;18.20;99.90;;;;;;5080652;28;20467;-76
2023/09/19 10:33:02;;;;;;;13.73;3.80;;;17.80;99.90;;;;;;5091101;28;20423;-76
2023/09/19 10:35:28;;;;;;;15.45;4.15;;;17.90;99.90;;;;;;5074090;28;20410;-75
2023/09/19 10:38:00;;;;;;;13.70;4.05;;;18.10;99.90;;;;;;5072094;28;20402;-75
2023/09/19 10:40:30;;;;;;;12.25;3.28;;;18.00;99.90;;;;;;5073662;28;20418;-75
2023/09/19 10:43:06;;;;;;;11.20;3.33;;;17.70;99.90;;;;;;5071471;28;20514;-75
2023/09/19 10:45:33;;;;;;;14.13;3.87;;;18.00;99.90;;;;;;5110265;28;20455;-75
2023/09/19 10:48:02;;;;;;;12.93;3.38;;;17.80;99.90;;;;;;5063814;28;20497;-77
2023/09/19 10:50:32;;;;;;;14.32;3.33;;;18.00;99.90;;;;;;5064150;28;20472;-75
2023/09/19 10:53:04;;;;;;;15.68;3.28;;;18.00;99.90;;;;;;5081266;28;20491;-74
2023/09/19 10:55:32;;;;;;;13.00;3.38;;;18.10;99.90;;;;;;5070907;28;20491;-76
2023/09/19 10:58:00;;;;;;;12.30;3.58;;;17.70;99.90;;;;;;5084794;28;20786;-77
2023/09/19 11:00:27;;;;;;;14.38;3.53;;;17.60;99.90;;;;;;5071784;28;20458;-77
2023/09/19 11:03:11;;;;;;;12.00;3.37;;;17.80;99.90;;;;;;5066610;28;20543;-77
2023/09/19 11:05:41;;;;;;;14.73;3.47;;;18.00;99.90;;;;;;5082606;28;20414;-76
2023/09/19 11:08:08;;;;;;;14.60;4.20;;;18.20;99.90;;;;;;5085533;28;20499;-76
2023/09/19 11:10:54;;;;;;;13.02;4.00;;;18.00;99.90;;;;;;5089852;28;20409;-77
2023/09/19 11:13:27;;;;;;;10.07;3.53;;;17.80;99.90;;;;;;5087926;28;20418;-76
2023/09/19 11:15:59;;;;;;;11.13;3.30;;;17.80;99.90;;;;;;5085140;28;20553;-75
2023/09/19 11:18:46;;;;;;;12.82;3.60;;;17.60;99.90;;;;;;5085596;28;20423;-75
2023/09/19 11:21:31;;;;;;;10.77;3.10;;;17.70;99.90;;;;;;5061351;28;20519;-75
2023/09/19 11:24:35;;;;;;;11.18;3.28;;;17.70;99.90;;;;;;5073024;28;20406;-76
2023/09/19 11:27:17;;;;;;;11.80;3.20;;;17.70;99.90;;;;;;5087673;28;20785;-75
2023/09/19 11:29:42;;;;;;;11.38;3.45;;;18.10;99.90;;;;;;5071563;28;20524;-74
2023/09/19 11:32:09;;;;;;;10.55;3.17;;;18.10;99.90;;;;;;5085475;28;20496;-75
2023/09/19 11:34:45;;;;;;;11.35;3.60;;;18.20;99.90;;;;;;5054585;28;20429;-74
2023/09/19 11:37:14;;;;;;;11.50;2.88;;;18.10;99.90;;;;;;5056421;28;20394;-74
2023/09/19 11:40:15;;;;;;;13.37;3.17;;;18.30;99.90;;;;;;5080653;28;20502;-74
2023/09/19 11:42:53;;;;;;;13.68;3.35;;;18.30;99.90;;;;;;5066536;28;20774;-75
2023/09/19 11:45:49;;;;;;;14.27;3.55;;;18.50;99.90;;;;;;5082466;28;20506;-74
2023/09/19 11:48:18;;;;;;;14.07;3.30;;;18.50;99.90;;;;;;5087537;28;20449;-74
2023/09/19 11:50:47;;;;;;;13.00;3.55;;;18.50;99.90;;;;;;5057706;28;20423;-74
2023/09/19 11:53:13;;;;;;;12.40;3.50;;;18.60;99.90;;;;;;5078581;28;20427;-74
2023/09/19 11:55:43;;;;;;;14.60;3.47;;;18.20;99.90;;;;;;5061890;28;20406;-74
2023/09/19 11:58:09;;;;;;;12.95;3.38;;;18.00;99.90;;;;;;5079938;28;20428;-73
2023/09/19 12:00:39;;;;;;;11.60;3.00;;;18.00;99.90;;;;;;5080683;28;20760;-72
2023/09/19 12:03:11;;;;;;;9.88;2.90;;;18.00;99.90;;;;;;5076769;28;20499;-74
2023/09/19 12:05:37;;;;;;;14.10;3.42;;;18.20;99.90;;;;;;5070328;28;20921;-73
2023/09/19 12:08:10;;;;;;;13.30;3.15;;;18.10;99.90;;;;;;5071476;28;20760;-74
2023/09/19 12:10:49;;;;;;;10.82;3.00;;;18.20;99.90;;;;;;5069478;28;20430;-74
2023/09/19 12:13:18;;;;;;;12.52;2.92;;;18.10;99.90;;;;;;5085071;28;20470;-74
2023/09/19 12:15:47;;;;;;;11.55;3.08;;;17.80;99.90;;;;;;5065541;28;20924;-73
2023/09/19 12:18:33;;;;;;;12.98;3.00;;;18.00;99.90;;;;;;5066751;28;20457;-73
2023/09/19 12:21:00;;;;;;;12.82;3.58;;;17.90;99.90;;;;;;5100624;28;20417;-73
2023/09/19 12:23:25;;;;;;;15.13;3.00;;;18.00;99.90;;;;;;5104138;28;20916;-74
2023/09/19 12:25:53;;;;;;;14.87;3.30;;;17.80;99.90;;;;;;5100537;28;20416;-74
2023/09/19 12:28:22;;;;;;;9.30;2.50;;;18.00;99.90;;;;;;5085715;28;20418;-74
2023/09/19 12:30:48;;;;;;;10.93;2.40;;;18.00;99.90;;;;;;5095108;28;20423;-76
2023/09/19 12:33:19;;;;;;;9.83;3.10;;;18.10;99.90;;;;;;5102148;28;20921;-74
2023/09/19 12:35:45;;;;;;;11.57;2.70;;;18.30;99.90;;;;;;5067425;28;20396;-75
2023/09/19 12:38:23;;;;;;;11.97;2.73;;;18.20;99.90;;;;;;5105822;28;20540;-75
2023/09/19 12:40:51;;;;;;;11.77;2.80;;;18.30;99.90;;;;;;5097468;28;20775;-75
2023/09/19 12:43:18;;;;;;;14.73;2.50;;;18.40;99.90;;;;;;5070994;28;20412;-75
2023/09/19 12:45:44;;;;;;;9.27;2.85;;;18.40;99.90;;;;;;5092026;28;20400;-75
2023/09/19 12:48:31;;;;;;;8.18;2.28;;;18.40;99.90;;;;;;5079173;28;20816;-75
2023/09/19 12:51:12;;;;;;;11.98;2.63;;;18.20;99.90;;;;;;5091253;28;20423;-74
2023/09/19 12:53:44;;;;;;;16.42;2.78;;;18.30;99.90;;;;;;5086696;28;20408;-74
2023/09/19 12:56:12;;;;;;;17.37;2.73;;;18.20;99.90;;;;;;5106919;28;20400;-75
2023/09/19 12:59:00;;;;;;;9.82;2.72;;;18.30;99.90;;;;;;5073606;28;21053;-76
2023/09/19 13:01:29;;;;;;;9.32;2.40;;;18.30;99.90;;;;;;5104036;28;20485;-74
2023/09/19 13:04:18;;;;;;;9.60;2.30;;;18.10;99.90;;;;;;5101783;28;20596;-74
2023/09/19 13:06:52;;;;;;;9.35;2.55;;;18.10;99.90;;;;;;5087723;28;20443;-74
2023/09/19 13:09:24;;;;;;;11.13;2.60;;;18.10;99.90;;;;;;5101628;28;20419;-75
2023/09/19 13:11:50;;;;;;;10.23;2.70;;;18.30;99.90;;;;;;5109058;28;20483;-75